Ashdown, Arkansas
Current Conditions -  °F | °C
As of 11:53 AM on Sunday 25 Jan 2015 (Local Time) from KTXK Reporting Station
Clear Clear  
Wind Chill: 60°   Ceiling: Unl
Heat Index: 60°   Visibility: 10mi
Dew Point: 37°   Wind: 17mph
Humidity: 42%   Direction: 300°WNW
Pressure: 29.87"   Gusts: 28mph
Location:  33.67°N, 94.13°W
Report Text: KTXK 251753Z 30015G24KT 10SM CLR 16/03 A2987 RMK AO2 PK WND 30031/1712 SLP114 T01560028 10161 20033 58004
Loading
Personal Weather Stations






























Interactive Weather Map New forecast layout! Learn more

10-Day Weather Forecast

Advertisements
Track Severe Weather on mobile